createdAt,value
2022-12-11T16:16:49.325Z,0.00
2022-12-11T16:17:22.320Z,8.67
2022-12-11T16:18:03.574Z,16.93
2022-12-11T16:18:36.599Z,21.47
2022-12-11T16:19:09.612Z,21.20
2022-12-11T16:19:43.840Z,21.27
2022-12-11T16:20:16.838Z,19.87
2022-12-11T16:20:50.488Z,18.87
2022-12-11T16:21:23.538Z,21.00
2022-12-11T16:21:56.576Z,21.13
2022-12-11T16:22:29.558Z,19.00
2022-12-11T16:23:02.707Z,20.20
2022-12-11T16:23:35.697Z,20.87
2022-12-11T16:24:08.677Z,21.80
2022-12-11T16:24:42.875Z,19.93
2022-12-11T16:25:15.901Z,20.40
2022-12-11T16:25:49.594Z,21.53
2022-12-11T16:26:22.614Z,24.47
2022-12-11T16:26:55.805Z,27.93
2022-12-11T16:27:28.820Z,19.33
2022-12-11T16:28:02.660Z,21.73
2022-12-11T16:28:35.781Z,20.00
2022-12-11T16:29:08.773Z,18.93
2022-12-11T16:29:42.624Z,18.80
2022-12-11T16:30:15.756Z,20.13
2022-12-11T16:30:49.165Z,19.00
2022-12-11T16:31:24.913Z,19.07
2022-12-11T16:31:57.993Z,21.40
2022-12-11T16:32:31.002Z,21.00
2022-12-11T16:33:11.815Z,20.67
2022-12-11T16:33:45.683Z,20.27
2022-12-11T16:34:19.452Z,20.00
2022-12-11T16:34:52.435Z,19.80
2022-12-11T16:35:25.424Z,20.73
2022-12-11T16:35:58.831Z,20.67
2022-12-11T16:36:31.860Z,20.27
2022-12-11T16:37:09.776Z,20.07
2022-12-11T16:37:42.780Z,20.00
2022-12-11T16:38:15.762Z,20.00
2022-12-11T16:38:53.758Z,20.60
2022-12-11T16:39:28.153Z,21.53
2022-12-11T16:40:01.149Z,21.20
2022-12-11T16:40:34.154Z,22.20
2022-12-11T16:41:07.157Z,21.87
2022-12-11T16:41:42.707Z,21.67
2022-12-11T16:42:15.691Z,23.40
2022-12-11T16:42:49.321Z,22.33
2022-12-11T16:43:22.319Z,21.27
2022-12-11T16:43:55.382Z,21.47
2022-12-11T16:44:28.394Z,21.07
2022-12-11T16:45:07.088Z,20.80
2022-12-11T16:45:40.106Z,20.60
2022-12-11T16:46:13.157Z,20.40
2022-12-11T16:46:46.243Z,20.40
2022-12-11T16:47:19.298Z,20.40
2022-12-11T16:47:53.259Z,20.40
2022-12-11T16:48:26.266Z,20.27
2022-12-11T16:48:59.253Z,20.20
2022-12-11T19:57:26.814Z,0.00
2022-12-11T19:57:58.874Z,2.73
2022-12-11T19:58:30.917Z,11.00
2022-12-11T19:59:02.980Z,21.93
2022-12-11T19:59:35.019Z,28.20
2022-12-11T20:00:07.056Z,16.40
2022-12-11T20:00:39.154Z,16.87
2022-12-11T20:01:11.273Z,26.47
2022-12-11T20:01:43.444Z,26.60
2022-12-11T20:02:15.513Z,19.80
2022-12-11T20:02:47.603Z,18.60
2022-12-11T20:03:19.641Z,18.13
2022-12-11T20:04:56.913Z,0.00
2022-12-11T20:05:31.200Z,3.27
2022-12-11T20:06:08.926Z,4.47
2022-12-11T20:06:45.705Z,9.20
2022-12-11T20:07:20.147Z,23.27
2022-12-11T20:07:54.516Z,26.53
2022-12-11T20:08:44.285Z,24.27
2022-12-11T20:09:19.929Z,31.27
2022-12-11T20:09:54.313Z,13.20
2022-12-11T20:10:28.998Z,18.87
2022-12-11T20:11:11.586Z,20.00
2022-12-11T20:11:48.732Z,22.27
2022-12-11T20:12:23.073Z,26.40
2022-12-11T20:13:00.174Z,23.00
2022-12-11T20:13:34.540Z,18.07
2022-12-11T20:14:09.120Z,16.73
2022-12-11T20:14:43.557Z,24.00
2022-12-11T20:15:20.126Z,18.20
2022-12-11T20:15:54.511Z,20.13
2022-12-11T20:16:53.769Z,20.67
2022-12-11T20:17:23.452Z,19.87
2022-12-11T20:18:56.274Z,0.00
2022-12-11T20:19:30.773Z,3.00
2022-12-11T20:21:15.860Z,0.00
2022-12-11T20:21:50.140Z,12.33
2022-12-11T20:23:31.573Z,0.00
2022-12-11T20:24:06.060Z,13.13
2022-12-11T20:24:40.413Z,18.73
2022-12-11T20:25:14.945Z,25.07
2022-12-11T20:25:50.073Z,23.13
